Time;durP1;ratioP1;P1;durP2;ratioP2;P2;SDS_P1;SDS_P2;PMS_P1;PMS_P2;Temp;Humidity;BMP_temperature;BMP_pressure;BME280_temperature;BME280_humidity;BME280_pressure;Samples;Min_cycle;Max_cycle;Signal;HPM_P1;HPM_P2
2022/10/04 00:01:53;;;;;;;5.13;3.75;;;13.70;57.80;;;;;;4942762;29;20074;-46
2022/10/04 00:04:25;;;;;;;7.28;3.95;;;13.70;57.80;;;;;;4944483;29;20051;-51
2022/10/04 00:07:01;;;;;;;6.35;3.45;;;13.70;57.80;;;;;;4940744;29;20051;-50
2022/10/04 00:09:33;;;;;;;7.00;3.53;;;13.70;57.80;;;;;;4942930;29;20048;-48
2022/10/04 00:12:03;;;;;;;6.10;3.80;;;13.70;57.80;;;;;;4944194;29;20055;-50
2022/10/04 00:14:37;;;;;;;6.90;3.58;;;13.60;57.80;;;;;;4944060;29;20062;-49
2022/10/04 00:17:10;;;;;;;8.52;3.90;;;13.60;57.70;;;;;;4938165;29;20055;-48
2022/10/04 00:19:42;;;;;;;8.32;3.65;;;13.60;57.70;;;;;;4942149;29;20066;-50
2022/10/04 00:22:16;;;;;;;7.18;4.40;;;13.60;57.70;;;;;;4945539;29;20075;-51
2022/10/04 00:25:02;;;;;;;;;;;13.50;57.70;;;;;;4943093;29;20055;-47
2022/10/04 00:27:29;;;;;;;9.85;4.25;;;13.60;57.80;;;;;;4943069;29;19930;-46
2022/10/04 00:30:22;;;;;;;7.80;4.35;;;13.50;57.70;;;;;;4942647;29;20051;-50
2022/10/04 00:33:01;;;;;;;5.75;3.78;;;13.50;57.80;;;;;;4942305;29;20065;-48
2022/10/04 00:35:48;;;;;;;4.28;3.20;;;13.50;57.90;;;;;;4941272;29;20047;-47
2022/10/04 00:38:26;;;;;;;6.03;3.92;;;13.50;58.00;;;;;;4944669;29;20055;-52
2022/10/04 00:41:01;;;;;;;8.13;4.32;;;13.50;58.00;;;;;;4943169;29;20062;-49
2022/10/04 00:43:33;;;;;;;5.22;3.65;;;13.40;57.90;;;;;;4944518;29;20065;-51
2022/10/04 00:46:04;;;;;;;5.53;3.78;;;13.40;58.00;;;;;;4939385;29;20051;-49
2022/10/04 00:48:40;;;;;;;4.78;3.90;;;13.40;58.10;;;;;;4944792;29;20056;-52
2022/10/04 00:51:17;;;;;;;7.35;3.88;;;13.40;58.10;;;;;;4942731;29;20060;-52
2022/10/04 00:54:04;;;;;;;5.88;3.60;;;13.40;58.10;;;;;;4944271;29;20059;-50
2022/10/04 00:56:39;;;;;;;9.25;4.13;;;13.40;58.10;;;;;;4942191;29;20066;-48
2022/10/04 00:59:27;;;;;;;4.57;3.30;;;13.30;58.00;;;;;;4943238;29;20056;-52
2022/10/04 01:01:58;;;;;;;4.90;3.67;;;13.30;58.00;;;;;;4943906;29;20067;-48
2022/10/04 01:04:36;;;;;;;5.85;3.35;;;13.30;58.10;;;;;;4944731;29;20082;-49
2022/10/04 01:07:05;;;;;;;5.60;3.30;;;13.30;58.10;;;;;;4939418;29;20060;-46
2022/10/04 01:09:45;;;;;;;5.70;3.88;;;13.30;58.20;;;;;;4943067;29;20055;-48
2022/10/04 01:12:24;;;;;;;6.88;4.10;;;13.30;58.30;;;;;;4944302;29;20056;-50
2022/10/04 01:14:59;;;;;;;5.78;3.72;;;13.30;58.30;;;;;;4944059;29;20059;-52
2022/10/04 01:17:26;;;;;;;5.63;4.00;;;13.30;58.30;;;;;;4943064;29;20048;-50
2022/10/04 01:19:55;;;;;;;4.97;3.80;;;13.30;58.30;;;;;;4944492;29;20056;-45
2022/10/04 01:22:36;;;;;;;4.57;3.45;;;13.30;58.40;;;;;;4943630;29;20058;-52
2022/10/04 01:25:04;;;;;;;6.30;3.33;;;13.20;58.40;;;;;;4940335;29;20063;-46
2022/10/04 01:27:35;;;;;;;4.47;3.25;;;13.20;58.30;;;;;;4941313;29;20061;-52
2022/10/04 01:30:05;;;;;;;5.63;3.55;;;13.20;58.30;;;;;;4942740;29;20056;-48
2022/10/04 01:32:32;;;;;;;4.35;3.35;;;13.20;58.30;;;;;;4943786;29;20062;-50
2022/10/04 01:35:00;;;;;;;6.25;3.40;;;13.20;58.30;;;;;;4942462;29;20062;-49
2022/10/04 01:37:27;;;;;;;5.45;3.67;;;13.20;58.40;;;;;;4937685;29;20393;-48
2022/10/04 01:39:56;;;;;;;6.35;4.47;;;13.20;58.40;;;;;;4942043;29;20044;-50
2022/10/04 01:42:29;;;;;;;10.20;3.60;;;13.20;58.40;;;;;;4944134;29;20059;-52
2022/10/04 01:45:01;;;;;;;7.15;3.67;;;13.20;58.50;;;;;;4941438;29;20069;-45
2022/10/04 01:47:35;;;;;;;8.45;3.70;;;13.20;58.50;;;;;;4941543;29;20059;-48
2022/10/04 01:50:08;;;;;;;5.57;4.15;;;13.20;58.50;;;;;;4941868;29;20057;-51
2022/10/04 01:52:42;;;;;;;5.57;3.67;;;13.20;58.50;;;;;;4943125;29;20069;-52
2022/10/04 01:55:15;;;;;;;10.35;4.35;;;13.20;58.50;;;;;;4940130;29;20415;-50
2022/10/04 01:57:47;;;;;;;7.20;4.38;;;13.20;58.50;;;;;;4940012;29;20051;-51
2022/10/04 02:00:16;;;;;;;6.05;4.07;;;13.20;58.50;;;;;;4940488;29;20056;-49
2022/10/04 02:02:51;;;;;;;5.32;3.85;;;13.20;58.50;;;;;;4942389;29;20067;-51
2022/10/04 02:05:28;;;;;;;6.93;4.15;;;13.10;58.50;;;;;;4940138;29;20051;-50
2022/10/04 02:07:57;;;;;;;9.52;4.60;;;13.10;58.50;;;;;;4943277;29;20064;-49
2022/10/04 02:10:26;;;;;;;6.45;3.53;;;13.10;58.50;;;;;;4941825;29;20059;-52
2022/10/04 02:12:56;;;;;;;5.72;3.70;;;13.00;58.50;;;;;;4945573;29;20055;-50
2022/10/04 02:15:27;;;;;;;6.05;3.53;;;13.00;58.60;;;;;;4941776;29;20055;-45
2022/10/04 02:17:56;;;;;;;5.00;3.30;;;13.00;58.70;;;;;;4946789;29;20055;-51
2022/10/04 02:20:26;;;;;;;5.80;3.85;;;13.00;58.70;;;;;;4945609;29;20048;-50
2022/10/04 02:23:02;;;;;;;7.38;3.83;;;13.00;58.70;;;;;;4947333;29;20059;-48
2022/10/04 02:25:31;;;;;;;5.53;4.20;;;13.00;58.70;;;;;;4943373;29;20078;-47
2022/10/04 02:27:58;;;;;;;5.50;3.30;;;13.00;58.70;;;;;;4945446;29;20062;-52
2022/10/04 02:30:25;;;;;;;12.18;3.92;;;13.00;58.70;;;;;;4942454;29;20060;-52
2022/10/04 02:32:56;;;;;;;5.50;4.38;;;13.00;58.70;;;;;;4946496;29;20419;-50
2022/10/04 02:35:26;;;;;;;5.18;3.58;;;13.00;58.60;;;;;;4942176;29;20051;-49
2022/10/04 02:38:01;;;;;;;5.53;3.63;;;13.00;58.60;;;;;;4946747;29;20059;-50
2022/10/04 02:40:33;;;;;;;6.40;3.95;;;13.00;58.50;;;;;;4946419;29;20059;-49
2022/10/04 02:43:04;;;;;;;5.45;4.00;;;13.00;58.50;;;;;;4947079;29;20099;-50
2022/10/04 02:45:39;;;;;;;6.43;4.45;;;12.90;58.40;;;;;;4928125;29;20055;-42
2022/10/04 02:48:27;;;;;;;5.60;3.60;;;12.90;58.40;;;;;;4928555;29;20062;-41
2022/10/04 02:50:57;;;;;;;5.43;3.70;;;12.90;58.40;;;;;;4926829;29;20058;-41
2022/10/04 02:53:29;;;;;;;6.10;3.90;;;12.90;58.90;;;;;;4927743;29;20504;-40
2022/10/04 02:55:58;;;;;;;4.85;3.35;;;12.90;58.50;;;;;;4926195;29;20059;-42
2022/10/04 02:58:27;;;;;;;5.05;4.03;;;12.90;58.40;;;;;;4929730;29;20060;-44
2022/10/04 03:00:57;;;;;;;5.97;3.83;;;12.90;58.40;;;;;;4926931;29;20059;-40
2022/10/04 03:03:26;;;;;;;7.47;3.55;;;12.90;58.50;;;;;;4929732;29;20063;-46
2022/10/04 03:06:01;;;;;;;5.68;3.50;;;12.80;58.50;;;;;;4925845;29;20519;-41
2022/10/04 03:08:31;;;;;;;4.72;3.42;;;12.80;58.50;;;;;;4928854;29;20063;-41
2022/10/04 03:11:02;;;;;;;5.65;3.47;;;12.80;58.50;;;;;;4928053;29;20506;-41
2022/10/04 03:13:31;;;;;;;6.47;3.95;;;12.80;58.40;;;;;;4927729;29;20062;-40
2022/10/04 03:15:58;;;;;;;4.53;3.50;;;12.80;58.40;;;;;;4919844;29;20487;-42
2022/10/04 03:18:25;;;;;;;7.85;3.72;;;12.80;58.30;;;;;;4928713;29;20078;-41
2022/10/04 03:20:53;;;;;;;4.65;3.42;;;12.80;58.30;;;;;;4928436;29;20062;-43
2022/10/04 03:23:21;;;;;;;4.00;3.35;;;12.80;58.30;;;;;;4927929;29;20059;-41
2022/10/04 03:25:54;;;;;;;4.20;3.20;;;12.70;58.30;;;;;;4924336;29;20063;-45
2022/10/04 03:28:23;;;;;;;4.43;3.33;;;12.70;58.30;;;;;;4929030;29;20052;-43
2022/10/04 03:30:50;;;;;;;4.03;2.95;;;12.70;58.30;;;;;;4925394;29;20059;-43
2022/10/04 03:33:21;;;;;;;5.25;3.50;;;12.70;58.30;;;;;;4928445;29;20087;-43
2022/10/04 03:35:52;;;;;;;3.58;3.08;;;12.70;58.30;;;;;;4920594;29;20048;-47
2022/10/04 03:38:21;;;;;;;4.35;3.15;;;12.60;58.30;;;;;;4927764;29;20071;-46
2022/10/04 03:40:53;;;;;;;3.88;2.70;;;12.60;58.30;;;;;;4927742;29;20059;-44
2022/10/04 03:43:26;;;;;;;4.82;3.20;;;12.60;58.30;;;;;;4927293;29;20063;-41
2022/10/04 03:45:55;;;;;;;4.88;2.75;;;12.60;58.30;;;;;;4922710;29;20058;-42
2022/10/04 03:48:33;;;;;;;4.47;3.33;;;12.60;58.30;;;;;;4927335;29;20530;-42
2022/10/04 03:51:02;;;;;;;3.60;3.25;;;12.60;58.30;;;;;;4926789;29;20060;-44
2022/10/04 03:53:34;;;;;;;5.72;3.40;;;12.60;58.20;;;;;;4926502;29;20067;-45
2022/10/04 03:56:03;;;;;;;5.90;3.47;;;12.60;58.10;;;;;;4924170;29;20059;-42
2022/10/04 03:58:32;;;;;;;6.15;3.35;;;12.50;58.10;;;;;;4926577;29;20056;-43
2022/10/04 04:01:12;;;;;;;6.53;2.95;;;12.50;58.10;;;;;;4924995;29;20051;-49
2022/10/04 04:03:51;;;;;;;3.60;2.88;;;12.50;58.20;;;;;;4925101;29;20401;-42
2022/10/04 04:06:20;;;;;;;3.85;2.88;;;12.50;58.10;;;;;;4925089;29;20059;-41
2022/10/04 04:08:52;;;;;;;4.88;3.00;;;12.50;58.10;;;;;;4923558;29;20063;-46
2022/10/04 04:11:24;;;;;;;5.25;3.25;;;12.40;58.10;;;;;;4923322;29;20052;-41
2022/10/04 04:14:00;;;;;;;5.05;2.78;;;12.40;58.20;;;;;;4926022;29;20059;-41
2022/10/04 04:16:27;;;;;;;15.07;7.57;;;12.40;58.20;;;;;;4918943;29;20055;-43
2022/10/04 04:19:01;;;;;;;18.00;8.88;;;12.40;58.20;;;;;;4923976;29;20047;-42
2022/10/04 04:21:29;;;;;;;10.68;6.15;;;12.40;58.30;;;;;;4927983;29;20074;-40
2022/10/04 04:24:01;;;;;;;5.18;3.60;;;12.40;58.30;;;;;;4927833;29;20468;-40
2022/10/04 04:26:35;;;;;;;6.57;3.40;;;12.30;58.30;;;;;;4924092;29;20055;-42
2022/10/04 04:29:09;;;;;;;5.35;3.10;;;12.30;58.30;;;;;;4926946;29;20060;-41
2022/10/04 04:31:41;;;;;;;4.93;2.97;;;12.40;58.30;;;;;;4925172;29;20068;-44
2022/10/04 04:34:18;;;;;;;3.10;2.20;;;12.40;58.40;;;;;;4925426;29;20047;-42
2022/10/04 04:36:46;;;;;;;3.88;2.45;;;12.30;58.30;;;;;;4923610;29;20134;-43
2022/10/04 04:39:36;;;;;;;3.58;2.20;;;12.30;58.20;;;;;;4924596;29;20051;-46
2022/10/04 04:42:11;;;;;;;4.50;2.53;;;12.30;58.20;;;;;;4924361;29;20514;-44
2022/10/04 04:44:47;;;;;;;2.83;2.40;;;12.30;58.10;;;;;;4923706;29;20062;-43
2022/10/04 04:47:25;;;;;;;3.20;2.40;;;12.30;58.20;;;;;;4923862;29;20055;-44
2022/10/04 04:49:55;;;;;;;4.47;2.72;;;12.30;58.10;;;;;;4925027;29;20047;-45
2022/10/04 04:52:26;;;;;;;3.72;2.95;;;12.20;58.10;;;;;;4925848;29;20066;-43
2022/10/04 04:54:54;;;;;;;3.92;2.72;;;12.20;58.10;;;;;;4925034;29;20060;-42
2022/10/04 04:57:22;;;;;;;2.78;2.30;;;12.20;58.20;;;;;;4926361;29;20960;-42
2022/10/04 04:59:55;;;;;;;4.40;2.97;;;12.20;58.20;;;;;;4923733;29;20526;-43
2022/10/04 05:02:33;;;;;;;2.45;2.22;;;12.10;58.20;;;;;;4924765;29;20059;-42
2022/10/04 05:05:15;;;;;;;2.75;2.10;;;12.10;58.20;;;;;;4913762;29;20055;-45
2022/10/04 05:07:43;;;;;;;2.28;1.80;;;12.10;58.20;;;;;;4923191;29;20059;-43
2022/10/04 05:10:30;;;;;;;3.17;2.30;;;12.10;58.20;;;;;;4927001;29;20058;-46
2022/10/04 05:12:59;;;;;;;2.28;2.00;;;12.10;58.20;;;;;;4925920;29;20056;-42
2022/10/04 05:15:34;;;;;;;5.95;3.47;;;12.00;58.20;;;;;;4925693;29;20060;-42
2022/10/04 05:18:02;;;;;;;19.83;8.93;;;12.10;58.20;;;;;;4925766;29;20052;-43
2022/10/04 05:20:33;;;;;;;8.32;4.63;;;12.10;58.30;;;;;;4926320;29;20051;-43
2022/10/04 05:23:01;;;;;;;3.70;2.90;;;12.00;58.30;;;;;;4926313;29;20047;-48
2022/10/04 05:25:32;;;;;;;2.47;2.28;;;12.00;58.30;;;;;;4919167;29;20071;-47
2022/10/04 05:27:59;;;;;;;4.53;2.20;;;12.00;58.30;;;;;;4923318;29;20071;-42
2022/10/04 05:30:49;;;;;;;3.25;2.60;;;12.00;58.40;;;;;;4923317;29;20056;-44
2022/10/04 05:33:24;;;;;;;4.65;1.90;;;12.00;58.30;;;;;;4926363;29;20059;-41
2022/10/04 05:36:10;;;;;;;3.00;2.50;;;12.00;58.30;;;;;;4924555;29;20066;-42
2022/10/04 05:38:43;;;;;;;2.50;2.28;;;11.90;58.20;;;;;;4924186;29;20063;-45
2022/10/04 05:41:20;;;;;;;3.20;2.30;;;12.00;58.20;;;;;;4925531;29;20396;-41
2022/10/04 05:43:49;;;;;;;3.70;2.00;;;12.00;58.20;;;;;;4917029;29;20536;-43
2022/10/04 05:46:25;;;;;;;2.10;1.73;;;11.90;58.20;;;;;;4920827;29;20056;-42
2022/10/04 05:48:55;;;;;;;2.78;2.13;;;11.90;58.20;;;;;;4924647;29;20465;-40
2022/10/04 05:51:25;;;;;;;2.80;1.92;;;11.90;58.30;;;;;;4920646;29;20064;-43
2022/10/04 05:53:53;;;;;;;2.38;2.00;;;11.90;58.30;;;;;;4923924;29;20055;-46
2022/10/04 05:56:53;;;;;;;2.90;2.17;;;11.90;58.30;;;;;;4922524;29;20070;-43
2022/10/04 05:59:45;;;;;;;2.00;1.80;;;11.80;58.40;;;;;;4902353;29;20066;-45
2022/10/04 06:02:28;;;;;;;3.55;2.15;;;11.80;58.40;;;;;;4917578;29;20056;-45
2022/10/04 06:05:14;;;;;;;2.30;2.08;;;11.90;58.40;;;;;;4923519;29;20067;-43
2022/10/04 06:07:47;;;;;;;2.47;2.00;;;11.90;58.50;;;;;;4921421;29;20060;-42
2022/10/04 06:10:56;;;;;;;3.33;2.25;;;11.90;58.50;;;;;;4924838;29;20066;-43
2022/10/04 06:13:43;;;;;;;5.40;2.20;;;11.90;58.60;;;;;;4922688;29;20047;-43
2022/10/04 06:16:19;;;;;;;3.58;2.45;;;11.90;58.50;;;;;;4924913;29;20071;-46
2022/10/04 06:19:17;;;;;;;2.63;2.15;;;11.90;58.50;;;;;;4924149;29;20055;-43
2022/10/04 06:22:01;;;;;;;2.58;2.20;;;11.90;58.60;;;;;;4926402;29;20055;-46
2022/10/04 06:24:31;;;;;;;6.10;3.00;;;11.90;58.60;;;;;;4926468;29;20066;-45
2022/10/04 06:27:03;;;;;;;6.97;2.83;;;11.90;58.60;;;;;;4926263;29;20522;-42
2022/10/04 06:29:35;;;;;;;4.38;2.65;;;11.90;58.70;;;;;;4925735;29;20397;-42
2022/10/04 06:32:22;;;;;;;4.40;3.10;;;11.90;58.70;;;;;;4925416;29;20048;-44
2022/10/04 06:35:29;;;;;;;4.07;2.75;;;11.90;58.80;;;;;;4926262;29;20059;-42
2022/10/04 06:38:22;;;;;;;5.38;3.10;;;11.90;58.90;;;;;;4922362;29;20047;-48
2022/10/04 06:41:18;;;;;;;3.47;2.55;;;11.90;58.90;;;;;;4925515;29;20516;-44
2022/10/04 06:43:59;;;;;;;3.03;2.63;;;11.90;59.00;;;;;;4921189;29;20062;-45
2022/10/04 06:46:35;;;;;;;4.00;2.90;;;12.00;59.00;;;;;;4920280;29;20055;-44
2022/10/04 06:49:26;;;;;;;5.22;2.50;;;11.90;59.00;;;;;;4926009;29;20591;-43
2022/10/04 06:52:22;;;;;;;5.68;2.90;;;12.00;59.10;;;;;;4924945;29;20064;-40
2022/10/04 06:55:24;;;;;;;4.85;3.13;;;12.00;59.20;;;;;;4925557;29;20526;-42
2022/10/04 06:58:17;;;;;;;7.47;2.97;;;12.00;59.20;;;;;;4923229;29;20067;-43
2022/10/04 07:00:52;;;;;;;6.63;3.08;;;12.00;59.30;;;;;;4927581;29;20059;-41
2022/10/04 07:03:26;;;;;;;7.05;2.88;;;12.00;59.30;;;;;;4923907;29;20043;-44
2022/10/04 07:05:58;;;;;;;4.70;2.80;;;12.00;59.30;;;;;;4916814;29;20052;-40
2022/10/04 07:08:34;;;;;;;6.38;2.85;;;12.10;59.50;;;;;;4918580;29;20086;-47
2022/10/04 07:11:05;;;;;;;4.13;2.90;;;12.10;59.50;;;;;;4920570;29;20538;-42
2022/10/04 07:13:41;;;;;;;4.85;2.92;;;12.10;59.60;;;;;;4918357;29;20063;-46
2022/10/04 07:16:23;;;;;;;9.35;4.90;;;12.20;59.70;;;;;;4914150;29;20060;-43
2022/10/04 07:19:03;;;;;;;16.15;8.10;;;12.20;59.80;;;;;;4928526;29;20062;-42
2022/10/04 07:21:39;;;;;;;8.32;4.57;;;12.20;59.90;;;;;;4929167;29;20062;-43
2022/10/04 07:24:12;;;;;;;4.53;3.65;;;12.20;60.00;;;;;;4928692;29;20056;-40
2022/10/04 07:26:45;;;;;;;4.88;3.33;;;12.30;60.30;;;;;;4928999;29;20056;-41
2022/10/04 07:29:23;;;;;;;5.28;3.60;;;12.30;60.40;;;;;;4928170;29;20052;-41
2022/10/04 07:32:02;;;;;;;4.05;3.05;;;12.30;60.60;;;;;;4927403;29;20056;-47
2022/10/04 07:34:32;;;;;;;5.93;4.00;;;12.40;60.70;;;;;;4928238;29;20064;-41
2022/10/04 07:37:06;;;;;;;4.28;3.17;;;12.40;60.90;;;;;;4918519;29;20059;-45
2022/10/04 07:39:45;;;;;;;7.88;4.07;;;12.40;61.00;;;;;;4913042;29;20060;-46
2022/10/04 07:42:21;;;;;;;5.72;3.53;;;12.50;61.40;;;;;;4914012;29;20487;-42
2022/10/04 07:45:02;;;;;;;5.32;3.80;;;12.50;61.60;;;;;;4923196;29;20416;-46
2022/10/04 07:47:38;;;;;;;4.63;3.42;;;12.60;62.00;;;;;;4928111;29;20613;-42
2022/10/04 07:50:26;;;;;;;4.47;3.10;;;12.60;61.80;;;;;;4926966;29;20058;-42
2022/10/04 07:53:08;;;;;;;6.10;3.55;;;12.70;62.30;;;;;;4927139;29;20059;-42
2022/10/04 07:55:50;;;;;;;8.88;4.18;;;12.80;62.20;;;;;;4927673;29;20122;-42
2022/10/04 07:58:34;;;;;;;5.10;3.97;;;12.80;62.70;;;;;;4929429;29;20059;-40
2022/10/04 08:01:09;;;;;;;6.35;4.00;;;12.90;62.60;;;;;;4924715;29;20067;-46
2022/10/04 08:04:15;;;;;;;6.07;4.18;;;12.90;62.70;;;;;;4924277;29;20059;-41
2022/10/04 08:06:56;;;;;;;6.03;4.00;;;13.00;62.80;;;;;;4919242;29;20056;-42
2022/10/04 08:09:44;;;;;;;6.90;4.05;;;13.10;62.50;;;;;;4916687;29;20056;-42
2022/10/04 08:12:26;;;;;;;6.72;4.38;;;13.10;62.50;;;;;;4925119;29;20055;-42
2022/10/04 08:15:12;;;;;;;7.43;4.88;;;13.20;62.50;;;;;;4925670;29;20063;-40
2022/10/04 08:17:51;;;;;;;7.72;5.25;;;13.20;62.60;;;;;;4927519;29;20066;-42
2022/10/04 08:20:36;;;;;;;12.52;5.07;;;13.30;62.70;;;;;;4928323;29;20059;-41
2022/10/04 08:23:37;;;;;;;7.70;4.45;;;13.40;63.40;;;;;;4928704;29;20056;-41
2022/10/04 08:26:22;;;;;;;11.80;5.28;;;13.40;62.70;;;;;;4916308;29;20067;-41
2022/10/04 08:32:05;;;;;;;6.72;4.65;;;13.60;62.70;;;;;;4925659;29;20063;-40
2022/10/04 08:34:53;;;;;;;6.50;4.45;;;13.60;62.60;;;;;;4923283;29;20058;-45
2022/10/04 08:37:31;;;;;;;7.88;4.60;;;13.70;62.70;;;;;;4917787;29;20749;-43
2022/10/04 08:40:23;;;;;;;9.25;5.15;;;13.70;62.60;;;;;;4916129;29;20071;-43
2022/10/04 08:43:10;;;;;;;9.45;4.60;;;13.80;62.70;;;;;;4922849;29;20055;-44
2022/10/04 08:45:57;;;;;;;11.40;4.78;;;13.90;62.80;;;;;;4922321;29;20410;-41
2022/10/04 08:48:56;;;;;;;7.10;4.75;;;13.90;62.80;;;;;;4926007;29;20132;-42
2022/10/04 08:51:52;;;;;;;7.68;4.68;;;14.00;62.60;;;;;;4926104;29;20059;-43
2022/10/04 08:55:15;;;;;;;7.95;4.57;;;14.00;62.50;;;;;;4925614;29;20051;-41
2022/10/04 08:58:03;;;;;;;8.52;5.13;;;14.10;62.30;;;;;;4886895;29;20546;-40
2022/10/04 09:00:46;;;;;;;7.45;4.60;;;14.20;62.10;;;;;;4918892;29;20058;-41
2022/10/04 09:03:47;;;;;;;9.77;5.20;;;14.20;61.90;;;;;;4923924;29;20445;-42
2022/10/04 09:06:35;;;;;;;8.25;5.43;;;14.30;61.90;;;;;;4925163;29;20126;-42
2022/10/04 09:09:46;;;;;;;7.50;5.03;;;14.30;61.60;;;;;;4923246;29;20683;-45
2022/10/04 09:12:31;;;;;;;13.50;6.32;;;14.30;61.60;;;;;;4899778;29;20475;-43
2022/10/04 09:15:20;;;;;;;8.48;5.70;;;14.40;61.70;;;;;;4921369;29;20494;-41
2022/10/04 09:17:54;;;;;;;8.77;5.43;;;14.40;61.80;;;;;;4922731;29;20083;-41
2022/10/04 09:20:23;;;;;;;;;;;14.40;61.90;;;;;;4919216;29;20598;-45
2022/10/04 09:22:56;;;;;;;10.57;5.28;;;14.50;62.70;;;;;;4923880;29;20326;-46
2022/10/04 09:25:42;;;;;;;7.25;4.65;;;14.50;61.70;;;;;;4920178;29;20055;-42
2022/10/04 09:28:37;;;;;;;13.48;5.47;;;14.50;61.80;;;;;;4922962;29;20523;-46
2022/10/04 09:31:35;;;;;;;9.67;5.00;;;14.60;61.90;;;;;;4922205;29;20527;-44
2022/10/04 09:34:23;;;;;;;8.88;4.93;;;14.60;62.00;;;;;;4921280;29;21074;-44
2022/10/04 09:37:24;;;;;;;12.10;4.60;;;14.60;62.00;;;;;;4922800;29;20063;-42
2022/10/04 09:40:30;;;;;;;10.35;4.97;;;14.70;62.00;;;;;;4925678;29;20064;-43
2022/10/04 09:43:23;;;;;;;8.68;4.45;;;14.70;62.00;;;;;;4923097;29;20055;-40
2022/10/04 09:46:03;;;;;;;12.95;5.32;;;14.80;62.00;;;;;;4918969;29;20056;-41
2022/10/04 09:48:39;;;;;;;8.25;4.90;;;14.80;62.10;;;;;;4925690;29;20051;-43
2022/10/04 09:51:35;;;;;;;11.73;4.38;;;14.80;62.00;;;;;;4922593;29;20122;-42
2022/10/04 09:54:37;;;;;;;7.15;4.25;;;14.90;61.90;;;;;;4920561;29;20515;-48
2022/10/04 09:57:20;;;;;;;9.73;4.55;;;15.00;61.80;;;;;;4920251;29;20055;-42
2022/10/04 10:00:17;;;;;;;14.27;5.28;;;15.00;61.70;;;;;;4922338;29;20048;-42
2022/10/04 10:03:10;;;;;;;11.68;4.45;;;15.10;61.70;;;;;;4924246;29;20055;-42
2022/10/04 10:05:49;;;;;;;12.80;5.03;;;15.10;61.70;;;;;;4910376;29;20055;-43
2022/10/04 10:08:27;;;;;;;8.05;4.10;;;15.20;61.60;;;;;;4916391;29;20067;-42
2022/10/04 10:14:18;;;;;;;9.65;3.85;;;15.30;61.20;;;;;;4930207;29;20407;-43
2022/10/04 10:16:59;;;;;;;7.45;4.45;;;15.40;61.30;;;;;;4910733;29;20059;-42
2022/10/04 10:19:55;;;;;;;10.27;5.22;;;15.50;61.10;;;;;;4926366;29;20059;-42
2022/10/04 10:22:51;;;;;;;6.65;4.07;;;15.60;60.90;;;;;;4925405;29;20051;-42
2022/10/04 10:25:34;;;;;;;12.05;4.20;;;15.70;60.60;;;;;;4922398;29;20063;-44
2022/10/04 10:28:22;;;;;;;9.77;4.10;;;15.70;60.20;;;;;;4925079;29;20059;-48
2022/10/04 10:31:07;;;;;;;6.95;3.65;;;15.80;59.90;;;;;;4919177;29;20056;-43
2022/10/04 10:34:14;;;;;;;8.40;3.78;;;15.90;60.00;;;;;;4920367;29;20067;-45
2022/10/04 10:37:05;;;;;;;8.20;4.05;;;15.90;59.90;;;;;;4901798;29;20063;-44
2022/10/04 10:40:00;;;;;;;6.65;3.58;;;16.00;59.80;;;;;;4925574;29;20055;-41
2022/10/04 10:42:48;;;;;;;6.95;3.30;;;16.00;59.70;;;;;;4928756;29;20056;-44
2022/10/04 10:45:27;;;;;;;6.53;3.72;;;16.10;59.60;;;;;;4924705;29;20367;-42
2022/10/04 10:48:05;;;;;;;6.82;3.95;;;16.20;59.50;;;;;;4929623;29;21321;-42
2022/10/04 10:51:00;;;;;;;6.43;3.20;;;16.20;59.30;;;;;;4927570;29;20052;-46
2022/10/04 10:53:47;;;;;;;9.32;3.45;;;16.20;58.70;;;;;;4930000;29;20055;-44
2022/10/04 10:56:42;;;;;;;6.68;3.55;;;16.30;58.80;;;;;;4923172;29;20063;-41
2022/10/04 10:59:40;;;;;;;9.20;4.25;;;16.30;59.10;;;;;;4924147;29;20062;-41
2022/10/04 11:02:36;;;;;;;8.38;3.40;;;16.40;59.00;;;;;;4924298;29;20514;-43
2022/10/04 11:05:26;;;;;;;7.70;3.28;;;16.50;58.90;;;;;;4925438;29;20404;-41
2022/10/04 11:07:55;;;;;;;9.70;3.78;;;16.50;58.80;;;;;;4927441;29;20052;-43
2022/10/04 11:11:02;;;;;;;6.80;3.53;;;16.60;58.70;;;;;;4926610;29;20070;-42
2022/10/04 11:13:54;;;;;;;7.95;4.43;;;16.60;58.20;;;;;;4928001;29;20520;-45
2022/10/04 11:17:00;;;;;;;8.02;3.63;;;16.70;58.00;;;;;;4919221;29;20633;-42
2022/10/04 11:20:05;;;;;;;7.03;3.63;;;16.70;58.20;;;;;;4904883;29;21396;-44
2022/10/04 11:23:21;;;;;;;6.20;3.60;;;16.80;57.90;;;;;;4926521;29;20055;-42
2022/10/04 11:26:11;;;;;;;7.80;3.70;;;16.80;57.70;;;;;;4927327;29;20059;-41
2022/10/04 11:28:45;;;;;;;7.75;3.65;;;16.80;57.60;;;;;;4927388;29;20503;-42
2022/10/04 11:31:31;;;;;;;;;;;16.90;57.70;;;;;;4926187;29;20051;-43
2022/10/04 11:34:24;;;;;;;7.93;3.53;;;16.90;57.70;;;;;;4929170;29;19927;-42
2022/10/04 11:37:07;;;;;;;8.07;3.55;;;17.00;57.20;;;;;;4927267;29;21058;-42
2022/10/04 11:39:57;;;;;;;9.65;3.70;;;17.00;57.20;;;;;;4927555;29;20062;-41
2022/10/04 11:42:37;;;;;;;8.02;3.50;;;17.00;57.00;;;;;;4927448;29;20519;-43
2022/10/04 11:45:32;;;;;;;6.13;3.47;;;17.10;57.10;;;;;;4925363;29;20047;-47
2022/10/04 11:48:15;;;;;;;5.45;3.20;;;17.10;57.10;;;;;;4925360;29;20381;-41
2022/10/04 11:51:10;;;;;;;12.40;3.55;;;17.10;57.20;;;;;;4925814;29;20056;-43
2022/10/04 11:54:06;;;;;;;6.60;3.10;;;17.20;57.30;;;;;;4925030;29;20056;-43
2022/10/04 11:57:03;;;;;;;4.63;2.83;;;17.30;57.20;;;;;;4922654;29;20059;-44
2022/10/04 11:59:43;;;;;;;5.22;3.22;;;17.30;57.10;;;;;;4927053;29;20070;-41
2022/10/04 12:02:46;;;;;;;3.95;2.60;;;17.40;57.10;;;;;;4926484;29;20431;-42
2022/10/04 12:05:33;;;;;;;6.95;2.90;;;17.40;57.00;;;;;;4926580;29;20085;-43
2022/10/04 12:08:19;;;;;;;5.50;2.95;;;17.50;57.00;;;;;;4925719;29;20492;-42
2022/10/04 12:11:15;;;;;;;8.85;2.95;;;17.50;56.80;;;;;;4926700;29;20071;-45
2022/10/04 12:13:58;;;;;;;7.75;3.25;;;17.60;56.70;;;;;;4927788;29;20064;-42
2022/10/04 12:16:42;;;;;;;8.32;3.25;;;17.70;56.70;;;;;;4921955;29;20056;-44
2022/10/04 12:19:46;;;;;;;6.28;2.92;;;17.70;56.70;;;;;;4927264;29;20051;-43
2022/10/04 12:22:40;;;;;;;6.43;3.13;;;17.80;56.80;;;;;;4928036;29;20060;-41
2022/10/04 12:25:47;;;;;;;7.20;3.00;;;17.80;56.60;;;;;;4924553;29;20067;-41
2022/10/04 12:28:41;;;;;;;9.05;2.97;;;17.90;56.40;;;;;;4924911;29;20052;-46
2022/10/04 12:31:18;;;;;;;6.35;2.90;;;17.90;56.20;;;;;;4922089;29;20527;-44
2022/10/04 12:33:53;;;;;;;6.18;3.00;;;18.00;56.10;;;;;;4927096;29;20060;-44
2022/10/04 12:36:41;;;;;;;5.80;3.13;;;18.10;56.20;;;;;;4922806;29;20051;-42
2022/10/04 12:39:32;;;;;;;6.68;2.97;;;18.10;55.90;;;;;;4924534;29;20079;-43
2022/10/04 12:42:11;;;;;;;7.00;3.25;;;18.10;55.70;;;;;;4923685;29;20060;-41
2022/10/04 12:44:53;;;;;;;7.93;2.92;;;18.20;55.60;;;;;;4923554;29;20052;-41
2022/10/04 12:47:51;;;;;;;6.55;2.90;;;18.20;55.40;;;;;;4920276;29;20496;-41
2022/10/04 12:50:29;;;;;;;4.32;2.83;;;18.30;55.50;;;;;;4926129;29;20056;-41
2022/10/04 12:53:14;;;;;;;6.20;3.20;;;18.30;55.40;;;;;;4923488;29;20062;-42
2022/10/04 12:55:52;;;;;;;6.78;3.20;;;18.30;55.30;;;;;;4924650;29;20062;-42
2022/10/04 12:58:25;;;;;;;7.20;3.45;;;18.40;55.40;;;;;;4923746;29;20052;-46
2022/10/04 13:01:10;;;;;;;5.10;2.57;;;18.40;55.60;;;;;;4920918;29;20051;-44
2022/10/04 13:04:04;;;;;;;6.78;3.25;;;18.40;55.50;;;;;;4925447;29;20514;-44
2022/10/04 13:06:43;;;;;;;6.20;2.90;;;18.50;55.50;;;;;;4918486;29;20052;-44
2022/10/04 13:09:16;;;;;;;6.25;2.90;;;18.50;55.20;;;;;;4920528;29;20518;-41
2022/10/04 13:12:00;;;;;;;7.00;3.08;;;18.60;55.20;;;;;;4921338;29;20059;-41
2022/10/04 13:14:40;;;;;;;7.50;2.95;;;18.70;55.30;;;;;;4922310;29;20052;-43
2022/10/04 13:17:18;;;;;;;4.07;3.15;;;18.70;55.20;;;;;;4923793;29;20051;-45
2022/10/04 13:20:00;;;;;;;5.53;2.80;;;18.70;55.30;;;;;;4925934;29;20071;-44
2022/10/04 13:22:36;;;;;;;6.88;2.72;;;18.70;55.20;;;;;;4921953;29;20055;-43
2022/10/04 13:25:31;;;;;;;4.93;2.70;;;18.80;55.10;;;;;;4924323;29;20178;-43
2022/10/04 13:28:04;;;;;;;6.05;3.10;;;18.80;55.00;;;;;;4923717;29;20530;-45
2022/10/04 13:30:37;;;;;;;7.70;3.08;;;18.80;55.10;;;;;;4922161;29;20067;-41
2022/10/04 13:33:17;;;;;;;7.78;3.05;;;18.80;55.10;;;;;;4924636;29;21257;-41
2022/10/04 13:35:53;;;;;;;6.93;2.72;;;18.90;55.20;;;;;;4926851;29;20060;-42
2022/10/04 13:38:54;;;;;;;5.80;2.88;;;18.90;55.10;;;;;;4925578;29;20506;-41
2022/10/04 13:41:34;;;;;;;4.70;2.83;;;19.00;54.90;;;;;;4926573;29;20421;-43
2022/10/04 13:44:25;;;;;;;5.43;2.67;;;19.00;54.80;;;;;;4923253;29;20060;-45
2022/10/04 13:47:06;;;;;;;7.55;2.83;;;19.10;54.90;;;;;;4914571;29;20055;-41
2022/10/04 13:49:51;;;;;;;5.63;2.83;;;19.10;54.90;;;;;;4925112;29;20059;-47
2022/10/04 13:58:40;;;;;;;8.63;2.88;;;19.20;54.90;;;;;;4925554;29;20066;-42
2022/10/04 14:01:44;;;;;;;5.28;2.80;;;19.20;54.60;;;;;;4921055;29;20070;-45
2022/10/04 14:04:35;;;;;;;4.00;2.70;;;19.20;54.40;;;;;;4926061;29;20063;-45
2022/10/04 14:07:18;;;;;;;6.38;3.42;;;19.30;54.40;;;;;;4924191;29;20056;-44
2022/10/04 14:10:27;;;;;;;10.43;3.40;;;19.30;54.20;;;;;;4926558;29;20052;-41